Time,TemperatureF,DewpointF,PressureIn,WindDirection,WindDirectionDegrees,WindSpeedMPH,WindSpeedGustMPH,Humidity,HourlyPrecipIn,Conditions,Clouds,dailyrainin,SoftwareType,DateUTC
2013-07-11 00:02:00,74.8,73.4,29.53,South,180,0.0,0.0,94,0.02,,,0.02,fowsr,2013-07-11 04:02:00,
2013-07-11 00:07:00,74.7,73.4,29.53,South,180,0.0,0.0,95,0.02,,,0.02,fowsr,2013-07-11 04:07:00,
2013-07-11 00:12:00,74.7,73.4,29.53,South,180,0.0,0.0,95,0.00,,,0.02,fowsr,2013-07-11 04:12:00,
2013-07-11 00:17:00,74.7,73.4,29.53,South,180,0.0,0.0,95,0.00,,,0.02,fowsr,2013-07-11 04:17:00,
2013-07-11 00:22:00,74.7,73.4,29.53,South,180,0.0,0.0,95,0.00,,,0.02,fowsr,2013-07-11 04:22:00,
2013-07-11 00:27:00,74.7,73.4,29.53,South,180,0.0,0.0,95,0.00,,,0.02,fowsr,2013-07-11 04:27:00,
2013-07-11 00:32:00,74.7,73.7,29.53,South,180,0.0,0.0,96,0.00,,,0.02,fowsr,2013-07-11 04:32:00,
2013-07-11 00:37:00,74.7,73.7,29.53,South,180,0.0,0.0,96,0.00,,,0.02,fowsr,2013-07-11 04:37:00,
2013-07-11 00:42:00,74.7,73.7,29.52,South,180,0.0,0.0,96,0.00,,,0.02,fowsr,2013-07-11 04:42:00,
2013-07-11 00:47:00,74.7,73.7,29.53,South,180,0.0,0.7,96,0.00,,,0.02,fowsr,2013-07-11 04:47:00,
2013-07-11 00:52:00,74.5,73.5,29.51,South,180,0.0,0.7,96,0.00,,,0.02,fowsr,2013-07-11 04:52:00,
2013-07-11 00:57:00,74.5,73.5,29.51,South,180,0.0,0.0,96,0.00,,,0.02,fowsr,2013-07-11 04:57:00,
2013-07-11 01:02:00,74.5,73.5,29.51,South,180,0.0,0.0,96,0.00,,,0.02,fowsr,2013-07-11 05:02:00,
2013-07-11 01:07:00,74.5,73.5,29.51,South,180,0.0,0.0,96,0.00,,,0.02,fowsr,2013-07-11 05:07:00,
2013-07-11 01:12:00,74.5,73.5,29.51,South,180,0.0,0.0,96,0.00,,,0.02,fowsr,2013-07-11 05:12:00,
2013-07-11 01:17:00,74.5,73.5,29.51,South,180,0.0,0.0,96,0.00,,,0.02,fowsr,2013-07-11 05:17:00,
2013-07-11 01:22:00,74.5,73.5,29.50,South,180,0.0,0.0,96,0.00,,,0.02,fowsr,2013-07-11 05:22:00,
2013-07-11 01:27:00,74.5,73.5,29.51,South,180,0.0,0.0,96,0.00,,,0.02,fowsr,2013-07-11 05:27:00,
2013-07-11 01:32:00,74.5,73.5,29.51,South,180,0.0,0.0,96,0.00,,,0.02,fowsr,2013-07-11 05:32:00,
2013-07-11 01:37:00,74.3,73.3,29.50,South,180,0.0,0.0,96,0.00,,,0.02,fowsr,2013-07-11 05:37:00,
2013-07-11 01:42:00,74.3,73.3,29.50,SE,135,0.0,0.0,96,0.00,,,0.02,fowsr,2013-07-11 05:42:00,
2013-07-11 01:47:00,74.3,73.3,29.50,East,90,0.0,0.0,96,0.00,,,0.02,fowsr,2013-07-11 05:47:00,
2013-07-11 01:52:00,74.3,73.3,29.50,East,90,0.0,0.0,96,0.00,,,0.02,fowsr,2013-07-11 05:52:00,
2013-07-11 01:57:00,74.3,73.3,29.50,East,90,0.0,0.7,96,0.00,,,0.02,fowsr,2013-07-11 05:57:00,
2013-07-11 02:02:00,74.3,73.3,29.49,East,90,0.0,0.0,96,0.00,,,0.02,fowsr,2013-07-11 06:02:00,
2013-07-11 02:07:00,74.5,73.5,29.49,North,0,0.0,0.7,96,0.00,,,0.02,fowsr,2013-07-11 06:07:00,
2013-07-11 02:12:00,74.5,73.5,29.49,South,180,0.0,0.7,96,0.00,,,0.02,fowsr,2013-07-11 06:12:00,
2013-07-11 02:17:00,74.5,73.5,29.49,North,0,1.6,2.2,96,0.00,,,0.02,fowsr,2013-07-11 06:17:00,
2013-07-11 02:22:00,74.5,73.5,29.49,NW,315,0.7,1.6,96,0.00,,,0.02,fowsr,2013-07-11 06:22:00,
2013-07-11 02:27:00,74.5,73.5,29.48,SE,135,0.0,0.7,96,0.00,,,0.02,fowsr,2013-07-11 06:27:00,
2013-07-11 02:32:00,74.5,73.5,29.48,South,180,0.7,3.1,96,0.00,,,0.02,fowsr,2013-07-11 06:32:00,
2013-07-11 02:37:00,74.5,73.3,29.48,SW,225,0.7,1.6,95,0.00,,,0.02,fowsr,2013-07-11 06:37:00,
2013-07-11 02:42:00,74.5,73.3,29.48,NW,315,0.7,2.2,95,0.00,,,0.02,fowsr,2013-07-11 06:42:00,
2013-07-11 02:47:00,74.5,73.3,29.48,SE,135,0.0,1.6,95,0.00,,,0.02,fowsr,2013-07-11 06:47:00,
2013-07-11 02:52:00,74.5,73.3,29.48,SE,135,0.0,0.7,95,0.00,,,0.02,fowsr,2013-07-11 06:52:00,
2013-07-11 02:57:00,74.5,73.3,29.48,SE,135,0.0,1.6,95,0.00,,,0.02,fowsr,2013-07-11 06:57:00,
2013-07-11 03:02:00,74.5,73.3,29.49,SW,225,1.6,2.2,95,0.00,,,0.02,fowsr,2013-07-11 07:02:00,
2013-07-11 03:07:00,74.5,73.3,29.48,SSE,157,0.0,0.7,95,0.00,,,0.02,fowsr,2013-07-11 07:07:00,
2013-07-11 03:12:00,74.5,73.3,29.48,SSE,157,3.1,4.5,95,0.00,,,0.02,fowsr,2013-07-11 07:12:00,
2013-07-11 03:17:00,74.5,73.3,29.48,East,90,0.0,0.7,95,0.00,,,0.02,fowsr,2013-07-11 07:17:00,
2013-07-11 03:22:00,74.3,73.1,29.48,North,0,0.0,1.6,95,0.00,,,0.02,fowsr,2013-07-11 07:22:00,
2013-07-11 03:27:00,74.3,73.1,29.48,East,90,0.0,1.6,95,0.00,,,0.02,fowsr,2013-07-11 07:27:00,
2013-07-11 03:32:00,74.3,73.1,29.48,SE,135,0.7,3.1,95,0.00,,,0.02,fowsr,2013-07-11 07:32:00,
2013-07-11 03:37:00,74.3,73.1,29.49,SE,135,0.0,0.7,95,0.00,,,0.02,fowsr,2013-07-11 07:37:00,
2013-07-11 03:42:00,74.3,73.1,29.48,East,90,0.0,0.7,95,0.00,,,0.02,fowsr,2013-07-11 07:42:00,
2013-07-11 03:47:00,74.3,73.1,29.48,East,90,0.0,0.7,95,0.00,,,0.02,fowsr,2013-07-11 07:47:00,
2013-07-11 03:52:00,74.3,73.1,29.49,SE,135,0.7,1.6,95,0.00,,,0.02,fowsr,2013-07-11 07:52:00,
2013-07-11 03:57:00,74.3,73.1,29.49,SE,135,2.2,3.8,95,0.00,,,0.02,fowsr,2013-07-11 07:57:00,
2013-07-11 04:02:00,74.3,73.1,29.48,East,90,0.0,0.7,95,0.00,,,0.02,fowsr,2013-07-11 08:02:00,
2013-07-11 04:07:00,74.1,72.9,29.48,SSE,157,0.7,2.2,95,0.00,,,0.02,fowsr,2013-07-11 08:07:00,
2013-07-11 04:12:00,74.1,72.9,29.48,SE,135,0.7,1.6,95,0.00,,,0.02,fowsr,2013-07-11 08:12:00,
2013-07-11 04:17:00,74.1,72.9,29.48,SE,135,0.7,2.2,95,0.00,,,0.02,fowsr,2013-07-11 08:17:00,
2013-07-11 04:22:00,74.1,72.9,29.49,South,180,0.0,0.0,95,0.00,,,0.02,fowsr,2013-07-11 08:22:00,
2013-07-11 04:27:00,73.9,72.7,29.49,East,90,0.0,0.0,95,0.00,,,0.02,fowsr,2013-07-11 08:27:00,
2013-07-11 04:32:00,73.9,72.7,29.48,SE,135,0.0,0.0,95,0.00,,,0.02,fowsr,2013-07-11 08:32:00,
2013-07-11 04:37:00,73.9,72.7,29.49,SE,135,0.0,0.7,95,0.00,,,0.02,fowsr,2013-07-11 08:37:00,
2013-07-11 04:42:00,73.8,72.6,29.49,SE,135,0.0,0.0,95,0.00,,,0.02,fowsr,2013-07-11 08:42:00,
2013-07-11 04:47:00,73.8,72.6,29.49,SE,135,0.0,0.0,95,0.00,,,0.02,fowsr,2013-07-11 08:47:00,
2013-07-11 04:52:00,73.8,72.6,29.50,SE,135,0.0,0.0,95,0.00,,,0.02,fowsr,2013-07-11 08:52:00,
2013-07-11 04:57:00,73.8,72.6,29.49,SE,135,0.0,0.0,95,0.00,,,0.02,fowsr,2013-07-11 08:57:00,
2013-07-11 05:02:00,73.8,72.6,29.50,SE,135,0.0,0.0,95,0.00,,,0.02,fowsr,2013-07-11 09:02:00,
2013-07-11 05:07:00,73.8,72.8,29.50,SE,135,0.0,0.0,96,0.00,,,0.02,fowsr,2013-07-11 09:07:00,
2013-07-11 05:12:00,73.6,72.6,29.50,SE,135,0.0,0.0,96,0.00,,,0.02,fowsr,2013-07-11 09:12:00,
2013-07-11 05:17:00,73.8,72.8,29.50,SW,225,0.0,0.0,96,0.00,,,0.02,fowsr,2013-07-11 09:17:00,
2013-07-11 05:22:00,73.8,72.8,29.50,East,90,0.0,0.0,96,0.00,,,0.02,fowsr,2013-07-11 09:22:00,
2013-07-11 05:27:00,73.8,72.8,29.50,SE,135,0.0,0.7,96,0.00,,,0.02,fowsr,2013-07-11 09:27:00,
2013-07-11 05:32:00,73.9,73.0,29.50,SE,135,0.0,0.0,96,0.00,,,0.02,fowsr,2013-07-11 09:32:00,
2013-07-11 05:37:00,73.9,73.0,29.50,East,90,0.0,1.6,96,0.00,,,0.02,fowsr,2013-07-11 09:37:00,
2013-07-11 05:42:00,73.9,73.0,29.50,East,90,0.0,0.0,96,0.00,,,0.02,fowsr,2013-07-11 09:42:00,
2013-07-11 05:47:00,74.1,73.2,29.50,East,90,0.0,0.7,96,0.00,,,0.02,fowsr,2013-07-11 09:47:00,
2013-07-11 05:52:00,74.1,73.2,29.50,East,90,0.0,0.0,96,0.00,,,0.02,fowsr,2013-07-11 09:52:00,
2013-07-11 05:57:00,74.1,73.2,29.50,East,90,0.0,0.7,96,0.00,,,0.02,fowsr,2013-07-11 09:57:00,
2013-07-11 06:02:00,74.1,73.2,29.50,South,180,2.2,3.8,96,0.00,,,0.02,fowsr,2013-07-11 10:02:00,
2013-07-11 06:07:00,74.1,73.2,29.50,North,0,0.0,0.0,96,0.00,,,0.02,fowsr,2013-07-11 10:07:00,
2013-07-11 06:12:00,74.1,73.2,29.50,SE,135,0.7,1.6,96,0.00,,,0.02,fowsr,2013-07-11 10:12:00,
2013-07-11 06:17:00,74.1,73.2,29.50,SE,135,0.7,1.6,96,0.00,,,0.02,fowsr,2013-07-11 10:17:00,
2013-07-11 06:22:00,74.3,73.3,29.50,SE,135,0.0,0.7,96,0.00,,,0.02,fowsr,2013-07-11 10:22:00,
2013-07-11 06:27:00,74.3,73.3,29.50,South,180,0.0,0.7,96,0.00,,,0.02,fowsr,2013-07-11 10:27:00,
2013-07-11 06:32:00,74.3,73.3,29.50,SE,135,0.0,0.7,96,0.00,,,0.02,fowsr,2013-07-11 10:32:00,
2013-07-11 06:37:00,74.3,73.3,29.51,SE,135,0.0,0.7,96,0.00,,,0.02,fowsr,2013-07-11 10:37:00,
2013-07-11 06:42:00,74.3,73.3,29.50,SE,135,0.0,0.0,96,0.00,,,0.02,fowsr,2013-07-11 10:42:00,
2013-07-11 06:47:00,74.3,73.3,29.51,East,90,0.0,0.7,96,0.00,,,0.02,fowsr,2013-07-11 10:47:00,
2013-07-11 06:52:00,74.5,73.5,29.50,East,90,0.0,0.7,96,0.00,,,0.02,fowsr,2013-07-11 10:52:00,
2013-07-11 06:57:00,74.5,73.5,29.51,SE,135,0.0,1.6,96,0.00,,,0.02,fowsr,2013-07-11 10:57:00,
2013-07-11 07:02:00,74.5,73.5,29.50,SE,135,0.0,0.7,96,0.00,,,0.02,fowsr,2013-07-11 11:02:00,
2013-07-11 07:07:00,74.7,73.7,29.51,SE,135,0.0,0.7,96,0.00,,,0.02,fowsr,2013-07-11 11:07:00,
2013-07-11 07:12:00,74.8,73.9,29.51,SE,135,0.0,0.0,96,0.00,,,0.02,fowsr,2013-07-11 11:12:00,
2013-07-11 07:17:00,74.8,73.9,29.51,SE,135,0.0,0.0,96,0.00,,,0.02,fowsr,2013-07-11 11:17:00,
2013-07-11 07:22:00,75.0,74.1,29.51,South,180,0.7,2.2,96,0.00,,,0.02,fowsr,2013-07-11 11:22:00,
2013-07-11 07:27:00,75.0,74.1,29.51,West,270,0.0,1.6,96,0.00,,,0.02,fowsr,2013-07-11 11:27:00,
2013-07-11 07:32:00,75.2,74.0,29.51,SE,135,0.7,2.2,95,0.00,,,0.02,fowsr,2013-07-11 11:32:00,
2013-07-11 07:37:00,75.2,73.7,29.51,SE,135,1.6,2.2,94,0.00,,,0.02,fowsr,2013-07-11 11:37:00,
2013-07-11 07:42:00,75.4,73.9,29.51,SE,135,0.0,0.0,94,0.00,,,0.02,fowsr,2013-07-11 11:42:00,
2013-07-11 07:47:00,75.4,73.9,29.51,SE,135,0.0,0.0,94,0.00,,,0.02,fowsr,2013-07-11 11:47:00,
2013-07-11 07:52:00,75.6,74.1,29.51,East,90,0.0,0.7,94,0.00,,,0.02,fowsr,2013-07-11 11:52:00,
2013-07-11 07:57:00,75.9,74.4,29.51,East,90,0.0,0.7,94,0.00,,,0.02,fowsr,2013-07-11 11:57:00,
2013-07-11 08:02:00,76.1,74.6,29.52,SE,135,1.6,2.2,94,0.00,,,0.02,fowsr,2013-07-11 12:02:00,
2013-07-11 08:07:00,76.3,74.8,29.52,West,270,0.0,1.6,94,0.00,,,0.02,fowsr,2013-07-11 12:07:00,
2013-07-11 08:12:00,76.5,74.7,29.51,SW,225,0.0,2.2,93,0.00,,,0.02,fowsr,2013-07-11 12:12:00,
2013-07-11 08:17:00,76.5,74.7,29.51,SW,225,0.0,0.0,93,0.00,,,0.02,fowsr,2013-07-11 12:17:00,
2013-07-11 08:22:00,76.5,74.7,29.52,SE,135,0.0,0.7,93,0.00,,,0.02,fowsr,2013-07-11 12:22:00,
2013-07-11 08:27:00,76.6,74.9,29.51,SE,135,0.0,0.0,93,0.00,,,0.02,fowsr,2013-07-11 12:27:00,
2013-07-11 08:32:00,77.0,75.0,29.51,SE,135,0.0,0.0,92,0.00,,,0.02,fowsr,2013-07-11 12:32:00,
2013-07-11 08:37:00,77.2,75.2,29.52,SE,135,1.6,2.2,92,0.00,,,0.02,fowsr,2013-07-11 12:37:00,
2013-07-11 08:42:00,77.4,75.1,29.52,East,90,0.0,0.0,91,0.00,,,0.02,fowsr,2013-07-11 12:42:00,
2013-07-11 08:47:00,77.5,75.3,29.51,SE,135,0.0,0.0,91,0.00,,,0.02,fowsr,2013-07-11 12:47:00,
2013-07-11 08:52:00,77.4,75.1,29.51,SE,135,0.0,0.7,91,0.00,,,0.02,fowsr,2013-07-11 12:52:00,
2013-07-11 08:57:00,77.4,75.1,29.51,East,90,0.0,0.7,91,0.00,,,0.02,fowsr,2013-07-11 12:57:00,
2013-07-11 09:02:00,77.4,74.8,29.52,SE,135,0.0,0.0,90,0.00,,,0.02,fowsr,2013-07-11 13:02:00,
2013-07-11 09:07:00,77.4,74.8,29.52,SE,135,0.0,0.0,90,0.00,,,0.02,fowsr,2013-07-11 13:07:00,
2013-07-11 09:12:00,77.4,74.8,29.51,SE,135,0.0,0.0,90,0.00,,,0.02,fowsr,2013-07-11 13:12:00,
2013-07-11 09:17:00,77.5,75.0,29.52,SE,135,1.6,3.1,90,0.00,,,0.02,fowsr,2013-07-11 13:17:00,
2013-07-11 09:22:00,77.5,75.0,29.51,SE,135,0.7,1.6,90,0.00,,,0.02,fowsr,2013-07-11 13:22:00,
2013-07-11 09:27:00,77.5,75.0,29.51,SE,135,0.0,0.7,90,0.00,,,0.02,fowsr,2013-07-11 13:27:00,
2013-07-11 09:32:00,77.5,75.0,29.51,SE,135,0.7,1.6,90,0.00,,,0.02,fowsr,2013-07-11 13:32:00,
2013-07-11 09:38:00,77.7,75.2,29.51,SE,135,0.7,1.6,90,0.00,,,0.02,fowsr,2013-07-11 13:38:00,
2013-07-11 09:48:00,77.7,75.2,29.51,SE,135,0.7,2.2,90,0.00,,,0.02,fowsr,2013-07-11 13:48:00,
2013-07-11 09:57:00,77.9,75.4,29.51,South,180,0.0,0.7,90,0.00,,,0.02,fowsr,2013-07-11 13:57:00,
2013-07-11 10:02:00,78.1,75.5,29.51,SE,135,0.7,2.2,90,0.00,,,0.02,fowsr,2013-07-11 14:02:00,
2013-07-11 10:08:00,78.3,75.5,29.51,NE,45,0.0,0.0,89,0.00,,,0.02,fowsr,2013-07-11 14:08:00,
2013-07-11 10:17:00,78.4,75.4,29.51,East,90,0.7,2.2,88,0.00,,,0.02,fowsr,2013-07-11 14:17:00,
2013-07-11 10:22:00,78.4,75.4,29.51,SE,135,0.0,0.7,88,0.00,,,0.02,fowsr,2013-07-11 14:22:00,
2013-07-11 10:28:00,78.4,75.4,29.50,SE,135,0.0,1.6,88,0.00,,,0.02,fowsr,2013-07-11 14:28:00,
2013-07-11 10:37:00,78.6,75.5,29.51,SE,135,0.0,0.7,88,0.00,,,0.02,fowsr,2013-07-11 14:37:00,
2013-07-11 10:42:00,78.8,75.4,29.51,SE,135,0.0,0.7,87,0.00,,,0.02,fowsr,2013-07-11 14:42:00,
2013-07-11 10:47:00,79.0,75.3,29.51,SE,135,0.7,2.2,86,0.00,,,0.02,fowsr,2013-07-11 14:47:00,
2013-07-11 10:53:00,79.2,75.2,29.51,SE,135,0.0,0.7,85,0.00,,,0.02,fowsr,2013-07-11 14:53:00,
2013-07-11 11:02:00,79.3,75.4,29.51,SE,135,0.0,1.6,85,0.00,,,0.02,fowsr,2013-07-11 15:02:00,
2013-07-11 11:07:00,79.3,75.1,29.51,West,270,0.0,0.7,84,0.00,,,0.02,fowsr,2013-07-11 15:07:00,
2013-07-11 11:12:00,79.3,75.1,29.51,SE,135,0.0,1.6,84,0.00,,,0.02,fowsr,2013-07-11 15:12:00,
2013-07-11 11:18:00,79.2,75.0,29.51,SE,135,0.0,1.6,84,0.00,,,0.02,fowsr,2013-07-11 15:18:00,
2013-07-11 11:27:00,79.2,75.0,29.51,SW,225,0.0,0.7,84,0.00,,,0.02,fowsr,2013-07-11 15:27:00,
2013-07-11 11:32:00,79.2,75.0,29.51,SE,135,0.0,0.0,84,0.00,,,0.02,fowsr,2013-07-11 15:32:00,
2013-07-11 11:38:00,79.2,75.0,29.51,South,180,0.0,0.7,84,0.00,,,0.02,fowsr,2013-07-11 15:38:00,
2013-07-11 11:43:00,79.3,75.1,29.51,SE,135,0.7,2.2,84,0.00,,,0.02,fowsr,2013-07-11 15:43:00,
2013-07-11 11:52:00,79.7,75.5,29.51,SE,135,0.0,0.7,84,0.00,,,0.02,fowsr,2013-07-11 15:52:00,
2013-07-11 11:57:00,80.1,75.8,29.51,SE,135,0.7,2.2,84,0.00,,,0.02,fowsr,2013-07-11 15:57:00,
2013-07-11 12:02:00,80.2,76.0,29.51,SE,135,0.0,0.0,84,0.00,,,0.02,fowsr,2013-07-11 16:02:00,
2013-07-11 12:07:00,80.2,76.0,29.51,SE,135,0.0,0.0,84,0.00,,,0.02,fowsr,2013-07-11 16:07:00,
2013-07-11 12:12:00,80.8,76.0,29.50,North,0,0.0,0.7,82,0.00,,,0.02,fowsr,2013-07-11 16:12:00,
2013-07-11 12:17:00,80.8,76.0,29.51,East,90,0.7,3.1,82,0.00,,,0.02,fowsr,2013-07-11 16:17:00,
2013-07-11 12:23:00,81.0,76.1,29.51,SE,135,1.6,3.1,82,0.00,,,0.02,fowsr,2013-07-11 16:23:00,
2013-07-11 12:34:00,81.0,75.8,29.51,SE,135,0.7,2.2,81,0.00,,,0.02,fowsr,2013-07-11 16:34:00,
2013-07-11 12:42:00,81.3,76.2,29.51,SE,135,0.0,2.2,81,0.00,,,0.02,fowsr,2013-07-11 16:42:00,
2013-07-11 12:48:00,81.3,76.2,29.51,SE,135,0.0,0.7,81,0.00,,,0.02,fowsr,2013-07-11 16:48:00,
2013-07-11 12:57:00,81.7,76.2,29.50,SW,225,0.7,2.2,80,0.00,,,0.02,fowsr,2013-07-11 16:57:00,
2013-07-11 13:03:00,81.7,76.2,29.50,SW,225,0.7,2.2,80,0.00,,,0.02,fowsr,2013-07-11 17:03:00,
2013-07-11 13:13:00,-999.9,-99.9,29.50,North,3105,916.0,916.0,255,0.00,,,0.02,fowsr,2013-07-11 17:13:00,
2013-07-11 13:22:00,82.9,76.8,29.49,East,90,0.0,0.0,78,0.00,,,0.02,fowsr,2013-07-11 17:22:00,
2013-07-11 13:27:00,-999.9,-99.9,29.49,North,2970,916.0,916.0,255,0.00,,,0.02,fowsr,2013-07-11 17:27:00,
2013-07-11 13:32:00,82.9,76.5,29.49,SE,135,0.0,0.7,77,0.00,,,0.02,fowsr,2013-07-11 17:32:00,
2013-07-11 13:37:00,82.9,76.2,29.49,SE,135,0.0,0.7,76,0.00,,,0.02,fowsr,2013-07-11 17:37:00,
2013-07-11 13:42:00,82.8,76.4,29.48,SE,135,0.0,0.7,77,0.00,,,0.02,fowsr,2013-07-11 17:42:00,
2013-07-11 13:47:00,82.4,76.0,29.49,SE,135,0.0,0.7,77,0.00,,,0.02,fowsr,2013-07-11 17:47:00,
2013-07-11 13:53:00,82.2,76.4,29.48,SE,135,0.7,1.6,79,0.00,,,0.02,fowsr,2013-07-11 17:53:00,
2013-07-11 14:03:00,82.2,76.4,29.48,SE,135,0.0,1.6,79,0.00,,,0.02,fowsr,2013-07-11 18:03:00,
2013-07-11 14:12:00,82.4,76.9,29.48,SE,135,0.0,0.0,80,0.00,,,0.02,fowsr,2013-07-11 18:12:00,
2013-07-11 14:18:00,82.6,76.8,29.48,SE,135,0.0,0.7,79,0.00,,,0.02,fowsr,2013-07-11 18:18:00,
2013-07-11 14:27:00,82.8,76.7,29.47,SE,135,0.7,1.6,78,0.00,,,0.02,fowsr,2013-07-11 18:27:00,
2013-07-11 14:32:00,82.6,76.5,29.47,SE,135,0.0,0.0,78,0.00,,,0.02,fowsr,2013-07-11 18:32:00,
2013-07-11 14:37:00,82.2,76.4,29.47,NE,45,0.0,0.0,79,0.00,,,0.02,fowsr,2013-07-11 18:37:00,
2013-07-11 14:42:00,81.9,76.1,29.48,NE,45,0.0,0.0,79,0.00,,,0.02,fowsr,2013-07-11 18:42:00,
2013-07-11 14:47:00,81.7,76.2,29.47,NE,45,0.0,0.0,80,0.00,,,0.02,fowsr,2013-07-11 18:47:00,
2013-07-11 14:52:00,81.5,76.1,29.47,SE,135,0.0,0.0,80,0.00,,,0.02,fowsr,2013-07-11 18:52:00,
2013-07-11 14:57:00,81.3,76.2,29.47,SE,135,0.0,0.0,81,0.01,,,0.04,fowsr,2013-07-11 18:57:00,
2013-07-11 15:02:00,80.8,76.2,29.47,SE,135,0.0,0.0,83,0.02,,,0.05,fowsr,2013-07-11 19:02:00,
2013-07-11 15:07:00,80.4,76.5,29.47,SE,135,0.0,0.0,85,0.07,,,0.09,fowsr,2013-07-11 19:07:00,
2013-07-11 15:13:00,79.7,76.3,29.47,SE,135,0.0,0.0,87,0.09,,,0.12,fowsr,2013-07-11 19:13:00,
2013-07-11 15:22:00,78.6,76.1,29.47,SE,135,0.0,0.0,90,0.14,,,0.17,fowsr,2013-07-11 19:22:00,
2013-07-11 15:27:00,78.3,75.7,29.47,SE,135,0.0,0.0,90,0.17,,,0.19,fowsr,2013-07-11 19:27:00,
2013-07-11 15:33:00,77.7,75.2,29.47,SE,135,0.0,0.0,90,0.19,,,0.21,fowsr,2013-07-11 19:33:00,
2013-07-11 15:37:00,77.4,74.8,29.47,SE,135,0.0,0.0,90,0.21,,,0.24,fowsr,2013-07-11 19:37:00,
2013-07-11 15:42:00,76.8,74.8,29.47,SE,135,0.0,1.6,92,0.21,,,0.24,fowsr,2013-07-11 19:42:00,
2013-07-11 15:47:00,76.5,74.5,29.46,SE,135,0.0,0.0,92,0.22,,,0.25,fowsr,2013-07-11 19:47:00,
2013-07-11 15:52:00,76.3,74.3,29.46,SE,135,0.0,0.0,92,0.22,,,0.25,fowsr,2013-07-11 19:52:00,
2013-07-11 15:58:00,76.1,74.1,29.46,SE,135,0.0,0.7,92,0.22,,,0.25,fowsr,2013-07-11 19:58:00,
2013-07-11 16:02:00,75.7,73.8,29.45,SE,135,0.0,0.0,92,0.21,,,0.25,fowsr,2013-07-11 20:02:00,
2013-07-11 16:08:00,75.7,74.0,29.46,SSE,157,0.7,2.2,93,0.18,,,0.25,fowsr,2013-07-11 20:08:00,
2013-07-11 16:17:00,75.4,73.7,29.45,ESE,112,0.0,0.0,93,0.13,,,0.25,fowsr,2013-07-11 20:17:00,
2013-07-11 16:23:00,75.4,73.7,29.46,SE,135,0.0,0.7,93,0.11,,,0.26,fowsr,2013-07-11 20:23:00,
2013-07-11 16:27:00,75.4,73.7,29.45,SE,135,0.0,0.7,93,0.08,,,0.26,fowsr,2013-07-11 20:27:00,
2013-07-11 16:32:00,75.4,73.7,29.45,SE,135,0.0,0.7,93,0.06,,,0.26,fowsr,2013-07-11 20:32:00,
2013-07-11 16:37:00,75.4,73.7,29.45,SSE,157,0.0,2.2,93,0.05,,,0.26,fowsr,2013-07-11 20:37:00,
2013-07-11 16:43:00,75.4,73.7,29.45,SE,135,0.0,0.0,93,0.02,,,0.26,fowsr,2013-07-11 20:43:00,
2013-07-11 16:52:00,75.2,73.7,29.45,SE,135,0.0,0.0,94,0.01,,,0.26,fowsr,2013-07-11 20:52:00,
2013-07-11 16:57:00,75.2,73.7,29.45,SE,135,0.0,1.6,94,0.01,,,0.26,fowsr,2013-07-11 20:57:00,
2013-07-11 17:02:00,75.2,73.7,29.45,SE,135,0.0,0.0,94,0.01,,,0.26,fowsr,2013-07-11 21:02:00,
2013-07-11 17:07:00,75.2,73.7,29.45,SE,135,0.0,0.0,94,0.01,,,0.26,fowsr,2013-07-11 21:07:00,
2013-07-11 17:13:00,75.2,73.7,29.45,SE,135,0.0,0.0,94,0.01,,,0.26,fowsr,2013-07-11 21:13:00,
2013-07-11 17:23:00,75.2,73.7,29.45,SE,135,0.0,0.7,94,0.01,,,0.26,fowsr,2013-07-11 21:23:00,
2013-07-11 17:33:00,75.0,73.8,29.45,East,90,0.0,1.6,95,0.00,,,0.26,fowsr,2013-07-11 21:33:00,
2013-07-11 17:38:00,74.8,73.6,29.45,East,90,0.7,1.6,95,0.00,,,0.26,fowsr,2013-07-11 21:38:00,
2013-07-11 17:47:00,74.5,73.3,29.45,SE,135,0.0,0.0,95,0.00,,,0.26,fowsr,2013-07-11 21:47:00,
2013-07-11 17:52:00,74.3,73.1,29.45,SE,135,0.0,0.0,95,0.00,,,0.26,fowsr,2013-07-11 21:52:00,
2013-07-11 17:58:00,74.3,73.1,29.45,SE,135,0.0,0.0,95,0.00,,,0.26,fowsr,2013-07-11 21:58:00,
2013-07-11 18:07:00,74.1,72.9,29.45,SE,135,0.0,0.0,95,0.00,,,0.26,fowsr,2013-07-11 22:07:00,
2013-07-11 18:12:00,73.9,72.7,29.45,SE,135,0.0,0.0,95,0.00,,,0.26,fowsr,2013-07-11 22:12:00,
2013-07-11 18:17:00,73.9,72.7,29.45,SE,135,0.0,0.0,95,0.01,,,0.27,fowsr,2013-07-11 22:17:00,
2013-07-11 18:23:00,73.9,72.7,29.45,SE,135,0.0,0.0,95,0.01,,,0.27,fowsr,2013-07-11 22:23:00,
2013-07-11 18:28:00,73.8,72.6,29.07,SE,135,0.0,0.0,95,0.01,,,0.27,fowsr,2013-07-11 22:28:00,
2013-07-11 18:38:00,73.8,72.6,29.45,SE,135,0.0,0.0,95,0.02,,,0.28,fowsr,2013-07-11 22:38:00,
2013-07-11 18:48:00,73.8,72.8,29.45,SE,135,0.0,0.0,96,0.04,,,0.29,fowsr,2013-07-11 22:48:00,
2013-07-11 18:53:00,73.8,72.8,29.45,SE,135,0.0,0.0,96,0.05,,,0.31,fowsr,2013-07-11 22:53:00,
2013-07-11 18:58:00,73.8,72.8,29.45,SE,135,0.0,0.0,96,0.06,,,0.32,fowsr,2013-07-11 22:58:00,
2013-07-11 19:03:00,73.6,72.6,29.45,SE,135,0.0,0.0,96,0.06,,,0.32,fowsr,2013-07-11 23:03:00,
2013-07-11 19:07:00,73.6,72.6,29.46,SE,135,0.0,0.0,96,0.06,,,0.32,fowsr,2013-07-11 23:07:00,
2013-07-11 19:12:00,73.8,72.8,29.46,SE,135,0.0,0.7,96,0.06,,,0.32,fowsr,2013-07-11 23:12:00,
2013-07-11 19:18:00,73.6,72.6,29.46,SE,135,0.0,0.0,96,0.06,,,0.32,fowsr,2013-07-11 23:18:00,
2013-07-11 19:23:00,73.8,72.8,29.45,SE,135,0.7,1.6,96,0.06,,,0.33,fowsr,2013-07-11 23:23:00,
2013-07-11 19:28:00,73.6,72.6,29.45,SE,135,0.0,0.0,96,0.06,,,0.33,fowsr,2013-07-11 23:28:00,
2013-07-11 19:37:00,73.8,72.8,29.45,SE,135,0.7,0.7,96,0.05,,,0.33,fowsr,2013-07-11 23:37:00,
2013-07-11 19:43:00,73.8,72.8,29.46,South,180,0.0,1.6,96,0.05,,,0.33,fowsr,2013-07-11 23:43:00,
2013-07-11 19:48:00,73.6,72.9,29.45,East,90,0.0,0.0,97,0.04,,,0.33,fowsr,2013-07-11 23:48:00,
2013-07-11 19:53:00,73.6,72.9,29.45,SE,135,0.7,1.6,97,0.02,,,0.33,fowsr,2013-07-11 23:53:00,
2013-07-11 19:58:00,73.6,72.9,29.44,SE,135,0.0,0.0,97,0.02,,,0.33,fowsr,2013-07-11 23:58:00,
2013-07-11 20:03:00,73.6,72.9,29.44,SE,135,0.0,0.0,97,0.01,,,0.33,fowsr,2013-07-12 00:03:00,
2013-07-11 20:08:00,73.6,72.9,29.44,SW,225,0.0,0.0,97,0.01,,,0.33,fowsr,2013-07-12 00:08:00,
2013-07-11 20:18:00,73.4,72.7,29.44,East,90,0.0,0.7,97,0.01,,,0.33,fowsr,2013-07-12 00:18:00,
2013-07-11 20:23:00,73.4,72.7,29.43,East,90,0.0,0.0,97,0.00,,,0.33,fowsr,2013-07-12 00:23:00,
2013-07-11 20:28:00,73.4,72.7,29.05,SE,135,0.0,0.0,97,0.00,,,0.33,fowsr,2013-07-12 00:28:00,
2013-07-11 20:33:00,73.2,72.5,29.43,SE,135,0.0,0.0,97,0.00,,,0.33,fowsr,2013-07-12 00:33:00,
2013-07-11 20:43:00,73.2,72.5,29.43,SE,135,0.0,0.0,97,0.00,,,0.33,fowsr,2013-07-12 00:43:00,
2013-07-11 20:53:00,73.0,72.3,29.43,SE,135,0.0,0.0,97,0.00,,,0.33,fowsr,2013-07-12 00:53:00,
2013-07-11 20:58:00,73.0,72.3,29.43,SE,135,0.0,0.0,97,0.00,,,0.33,fowsr,2013-07-12 00:58:00,
2013-07-11 21:03:00,73.0,72.3,29.44,SE,135,0.0,0.7,97,0.00,,,0.33,fowsr,2013-07-12 01:03:00,
2013-07-11 21:13:00,73.0,72.3,29.44,SE,135,0.0,0.0,97,0.00,,,0.33,fowsr,2013-07-12 01:13:00,
2013-07-11 21:18:00,73.0,72.3,29.44,SE,135,0.0,0.0,97,0.00,,,0.33,fowsr,2013-07-12 01:18:00,
2013-07-11 21:28:00,73.0,72.3,29.44,SE,135,0.0,0.0,97,0.00,,,0.33,fowsr,2013-07-12 01:28:00,
2013-07-11 21:38:00,73.0,72.3,29.44,SE,135,0.0,0.7,97,0.00,,,0.33,fowsr,2013-07-12 01:38:00,
2013-07-11 21:43:00,73.0,72.3,29.45,SE,135,0.0,0.7,97,0.00,,,0.33,fowsr,2013-07-12 01:43:00,
2013-07-11 21:48:00,73.0,72.3,29.07,East,90,0.0,0.0,97,0.00,,,0.33,fowsr,2013-07-12 01:48:00,
2013-07-11 21:53:00,73.0,72.3,29.46,SE,135,0.0,0.0,97,0.00,,,0.33,fowsr,2013-07-12 01:53:00,
2013-07-11 21:58:00,72.9,72.1,29.46,ESE,112,0.0,0.0,97,0.00,,,0.33,fowsr,2013-07-12 01:58:00,
2013-07-11 22:03:00,72.9,72.1,29.46,ESE,112,0.0,0.0,97,0.00,,,0.33,fowsr,2013-07-12 02:03:00,
2013-07-11 22:13:00,72.9,72.1,29.47,ESE,112,0.0,0.0,97,0.00,,,0.33,fowsr,2013-07-12 02:13:00,
2013-07-11 22:23:00,72.9,72.1,29.47,SE,135,0.0,0.0,97,0.00,,,0.33,fowsr,2013-07-12 02:23:00,
2013-07-11 22:28:00,72.9,72.1,29.47,SE,135,0.0,0.0,97,0.00,,,0.33,fowsr,2013-07-12 02:28:00,
2013-07-11 22:33:00,72.7,72.0,29.47,SE,135,0.0,0.0,97,0.00,,,0.33,fowsr,2013-07-12 02:33:00,
2013-07-11 22:38:00,72.9,72.1,29.47,SE,135,0.0,0.0,97,0.00,,,0.33,fowsr,2013-07-12 02:38:00,
2013-07-11 22:43:00,72.9,72.1,29.47,SE,135,0.0,0.0,97,0.00,,,0.33,fowsr,2013-07-12 02:43:00,
2013-07-11 22:48:00,72.9,72.1,29.47,SE,135,0.0,0.0,97,0.00,,,0.33,fowsr,2013-07-12 02:48:00,
2013-07-11 22:53:00,72.9,72.1,29.47,SE,135,0.0,0.0,97,0.00,,,0.33,fowsr,2013-07-12 02:53:00,
2013-07-11 22:58:00,72.9,72.1,29.47,SE,135,0.0,0.0,97,0.00,,,0.33,fowsr,2013-07-12 02:58:00,
2013-07-11 23:03:00,72.9,72.1,29.47,SE,135,0.0,0.0,97,0.00,,,0.33,fowsr,2013-07-12 03:03:00,
2013-07-11 23:08:00,72.9,72.1,29.47,SE,135,0.0,0.0,97,0.00,,,0.33,fowsr,2013-07-12 03:08:00,
2013-07-11 23:13:00,72.9,72.1,29.46,SE,135,0.0,0.0,97,0.00,,,0.31,fowsr,2013-07-12 03:13:00,
2013-07-11 23:23:00,72.9,72.1,29.46,SE,135,0.0,0.0,97,0.00,,,0.31,fowsr,2013-07-12 03:23:00,
2013-07-11 23:28:00,72.9,72.1,29.46,SE,135,0.0,0.0,97,0.00,,,0.31,fowsr,2013-07-12 03:28:00,
2013-07-11 23:38:00,72.9,72.1,29.45,SE,135,0.0,0.7,97,0.00,,,0.31,fowsr,2013-07-12 03:38:00,
2013-07-11 23:43:00,73.0,72.3,29.45,South,180,0.0,0.7,97,0.00,,,0.31,fowsr,2013-07-12 03:43:00,
2013-07-11 23:48:00,72.9,72.1,29.45,SE,135,0.0,0.0,97,0.00,,,0.31,fowsr,2013-07-12 03:48:00,
2013-07-11 23:58:00,72.9,72.1,29.45,SE,135,0.0,0.0,97,0.00,,,0.31,fowsr,2013-07-12 03:58:00,